Judy C — WDJ2660 — position and weather

sailwx.info

Track history (hours):
 
Tides and Currents Weather Stations Pressure Air Temp Water Temp Dewpoint Dewpoint Depression Visibility Wind Speed Wind Dir Waves Ship Positions

Judy C

Owner: Boston Line & Service Co Inc., Boston, MA. More information available from US FCC via Universal Licensing System and Coast Guard Vessel Documentation Center.

Last reported at 2018-Jul-22 07:21 UTC. Time now 2018-Jul-22 12:54 UTC.
Position N 42°15' W 070°57'.

Length 13 m.

Type: Ship. MMSI: 367760510.

Date/timePositionNaut miles runAvg speedWind from/ knotsBaromVisibWave heightAir tempDewpointWater temp
2018-Jul-22 07:21N 42°15' W 070°57'614.6
2018-Jul-22 06:57N 42°20' W 071°00'2 5.5
2018-Jul-22 06:31N 42°20' W 070°57'510.5
2018-Jul-22 06:00N 42°15' W 070°58'0 0.0
2018-Jul-22 05:30N 42°15' W 070°58'0 0.1
2018-Jul-22 04:38N 42°15' W 070°58'1 9.8
2018-Jul-22 04:30N 42°15' W 070°57'510.7
2018-Jul-22 04:00N 42°21' W 070°58'6 3.7
2018-Jul-22 02:24N 42°15' W 070°58'2 0.6
2018-Jul-21 23:06N 42°16' W 070°56'511.9
2018-Jul-21 22:42N 42°21' W 070°58'2 0.5
2018-Jul-21 18:30N 42°20' W 071°00'5 2.6
2018-Jul-21 16:26N 42°16' W 070°56'4 9.9
2018-Jul-21 15:59N 42°20' W 070°57'6 5.0
2018-Jul-21 14:52N 42°15' W 070°58'1 2.5
2018-Jul-21 14:30N 42°15' W 070°57'6 5.5
2018-Jul-21 13:30N 42°21' W 070°58'0 0.1
2018-Jul-21 13:00N 42°21' W 070°58'0 0.2
2018-Jul-21 12:30N 42°21' W 070°58'3 5.1
2018-Jul-21 12:00N 42°19' W 070°56'4 8.3
2018-Jul-21 11:30N 42°15' W 070°58'1 2.9
2018-Jul-21 11:00N 42°16' W 070°56'5 9.2
2018-Jul-21 10:30N 42°20' W 070°57'610.8
2018-Jul-21 10:00N 42°15' W 070°58'3 5.2
2018-Jul-21 09:30N 42°17' W 070°57'2 4.0
2018-Jul-21 09:00N 42°19' W 070°59'4 2.1
2018-Jul-21 07:03N 42°15' W 070°58'0 1.2
2018-Jul-21 06:59N 42°15' W 070°58'510.7
2018-Jul-21 06:30N 42°20' W 070°60'2 3.3
2018-Jul-21 06:00N 42°21' W 070°58'510.2
2018-Jul-21 05:29N 42°16' W 070°56'2 2.3
2018-Jul-21 04:46N 42°15' W 070°58'2 7.3
2018-Jul-21 04:26N 42°16' W 070°56'410.2
2018-Jul-21 04:00N 42°21' W 070°58'6 2.6
2018-Jul-21 01:46N 42°15' W 070°58'3 9.0
2018-Jul-21 01:29N 42°17' W 070°57'4 9.3
2018-Jul-21 01:01N 42°20' W 071°00'6 3.4
2018-Jul-20 23:17N 42°15' W 070°58'312.0
2018-Jul-20 23:00N 42°17' W 070°56'3 6.4
2018-Jul-20 22:30N 42°20' W 070°58'6 6.6
2018-Jul-20 21:40N 42°15' W 070°58'1 8.2
2018-Jul-20 21:30N 42°15' W 070°57'611.7
2018-Jul-20 21:00N 42°20' W 071°01'6 9.0
2018-Jul-20 20:20N 42°15' W 070°58'1 3.8
2018-Jul-20 20:00N 42°15' W 070°57'611.7
2018-Jul-20 19:30N 42°21' W 070°60'4 7.1
2018-Jul-20 19:00N 42°17' W 070°58'2 4.9
2018-Jul-20 18:30N 42°15' W 070°57'611.9
2018-Jul-20 18:01N 42°20' W 071°00'5 9.8
2018-Jul-20 17:30N 42°17' W 070°56'2 4.0
2018-Jul-20 17:00N 42°15' W 070°57'510.0
2018-Jul-20 16:30N 42°20' W 070°57'511.0
2018-Jul-20 16:00N 42°15' W 070°58'5 8.9
2018-Jul-20 15:30N 42°19' W 070°56'3 6.7
2018-Jul-20 15:00N 42°16' W 070°56'1 2.4
2018-Jul-20 14:30N 42°17' W 070°56'4 8.3
2018-Jul-20 14:00N 42°21' W 070°58'3 5.2
2018-Jul-20 13:30N 42°18' W 070°58'3 4.3
2018-Jul-20 12:44N 42°15' W 070°58'0 0.0
2018-Jul-20 11:36N 42°15' W 070°58'0 0.4
2018-Jul-20 11:12N 42°15' W 070°58'312.3
2018-Jul-20 10:55N 42°18' W 070°56'4 8.1
2018-Jul-20 10:29N 42°21' W 070°58'612.0
2018-Jul-20 09:59N 42°15' W 070°58'3 5.1
2018-Jul-20 09:29N 42°17' W 070°56'1 2.3
2018-Jul-20 08:52N 42°18' W 070°58'3 1.7
2018-Jul-20 07:02N 42°15' W 070°58'0 3.5
2018-Jul-20 07:00N 42°15' W 070°58'611.6
2018-Jul-20 06:29N 42°20' W 071°00'1 2.5
2018-Jul-20 06:00N 42°20' W 070°59'4 8.5
2018-Jul-20 05:30N 42°17' W 070°56'3 4.1
2018-Jul-20 04:52N 42°15' W 070°58'2 5.6
2018-Jul-20 04:30N 42°16' W 070°56'4 8.1
2018-Jul-20 04:00N 42°20' W 070°57'510.8
2018-Jul-20 03:31N 42°15' W 070°58'0 0.0
2018-Jul-20 03:00N 42°15' W 070°58'3 2.4
2018-Jul-20 01:43N 42°17' W 070°56'315.6
2018-Jul-20 01:30N 42°20' W 070°57'5 9.7
2018-Jul-20 01:00N 42°15' W 070°57'1 0.9
2018-Jul-19 23:49N 42°15' W 070°58'0 0.0
2018-Jul-19 23:28N 42°15' W 070°58'3 7.2
2018-Jul-19 23:00N 42°17' W 070°56'3 5.7
2018-Jul-19 22:30N 42°20' W 070°57'510.7
2018-Jul-19 22:00N 42°15' W 070°58'3 5.3
2018-Jul-19 21:30N 42°17' W 070°57'4 7.4
2018-Jul-19 21:00N 42°20' W 071°00'6 3.4
2018-Jul-19 19:18N 42°15' W 070°58'2 7.5
2018-Jul-19 19:01N 42°16' W 070°56'3 5.4
2018-Jul-19 18:30N 42°19' W 070°56'4 2.4
2018-Jul-19 16:40N 42°15' W 070°58'1 8.4
2018-Jul-19 16:30N 42°15' W 070°57'5 9.7
2018-Jul-19 16:00N 42°20' W 070°58'5 5.4
2018-Jul-19 15:06N 42°16' W 070°56'217.5
2018-Jul-19 15:00N 42°17' W 070°56'4 3.1
2018-Jul-19 13:51N 42°21' W 070°58'0 0.4
2018-Jul-19 13:29N 42°20' W 070°58'0 0.5
2018-Jul-19 12:39N 42°21' W 070°58'1 7.2
2018-Jul-19 12:30N 42°22' W 070°59'2 4.0
2018-Jul-19 12:00N 42°20' W 070°57'5 7.9
2018-Jul-19 11:19N 42°15' W 070°58'310.7
2018-Jul-19 11:00N 42°17' W 070°56'3 6.7
2018-Jul-19 10:30N 42°20' W 070°58'6 7.6
2018-Jul-19 09:45N 42°15' W 070°58'2 9.0
2018-Jul-19 09:29N 42°17' W 070°57'3 7.1
2018-Jul-19 09:00N 42°20' W 070°60'5 2.9
2018-Jul-19 07:10N 42°15' W 070°58'211.6
2018-Jul-19 07:00N 42°16' W 070°56'611.2
2018-Jul-19 06:30N 42°20' W 071°01'3 6.1
2018-Jul-19 06:00N 42°20' W 070°57'5 3.5
2018-Jul-19 04:35N 42°15' W 070°58'111.3
2018-Jul-19 04:28N 42°15' W 070°57'511.3
2018-Jul-19 04:00N 42°21' W 070°58'611.5
2018-Jul-19 03:30N 42°15' W 070°58'0 0.1
2018-Jul-19 01:55N 42°15' W 070°58'411.1
2018-Jul-19 01:30N 42°19' W 070°56'2 4.1
2018-Jul-19 00:58N 42°21' W 070°58'0 0.0
2018-Jul-19 00:29N 42°21' W 070°58'0 0.1
2018-Jul-19 00:00N 42°21' W 070°58'6 9.9
2018-Jul-18 23:24N 42°15' W 070°58'511.6
2018-Jul-18 23:00N 42°19' W 070°56'0 0.7
2018-Jul-18 22:27N 42°20' W 070°57'1 0.2
2018-Jul-18 16:14N 42°20' W 070°58'0 0.1
2018-Jul-18 13:58N 42°21' W 070°58'1 1.7
2018-Jul-18 13:22N 42°20' W 070°59'2 4.2
2018-Jul-18 13:00N 42°21' W 071°01'6 3.5
2018-Jul-18 11:12N 42°15' W 070°58'6 8.5
2018-Jul-18 10:30N 42°21' W 070°58'2 0.5
2018-Jul-18 06:27N 42°20' W 071°00'2 0.8
2018-Jul-18 04:00N 42°21' W 070°58'5 0.7
2018-Jul-17 21:28N 42°16' W 070°56'612.2
2018-Jul-17 21:01N 42°20' W 071°01'611.1
2018-Jul-17 20:27N 42°15' W 070°58'0 0.4
2018-Jul-17 20:00N 42°15' W 070°58'0 0.7
2018-Jul-17 19:30N 42°15' W 070°58'611.6
2018-Jul-17 19:00N 42°20' W 071°00'0 0.9
2018-Jul-17 18:30N 42°20' W 071°01'2 4.7
2018-Jul-17 18:00N 42°21' W 070°58'4 8.9
2018-Jul-17 17:30N 42°16' W 070°56'2 4.7
2018-Jul-17 17:00N 42°15' W 070°58'3 6.9
2018-Jul-17 16:30N 42°18' W 070°56'2 3.5
2018-Jul-17 16:00N 42°19' W 070°56'5 9.4
2018-Jul-17 15:30N 42°15' W 070°58'1 1.3
2018-Jul-17 15:00N 42°15' W 070°57'611.6
2018-Jul-17 14:30N 42°21' W 070°58'0 0.3
2018-Jul-17 14:01N 42°21' W 070°58'2 4.4
2018-Jul-17 13:30N 42°20' W 071°01'0 0.0
2018-Jul-17 13:00N 42°20' W 071°01'0 0.4
2018-Jul-17 12:30N 42°20' W 071°00'1 3.0
2018-Jul-17 12:00N 42°20' W 070°58'610.8
2018-Jul-17 11:29N 42°15' W 070°58'4 8.6
2018-Jul-17 11:00N 42°18' W 070°55'2 4.3
2018-Jul-17 10:31N 42°20' W 070°57'510.7
2018-Jul-17 10:00N 42°15' W 070°58'1 1.7
2018-Jul-17 09:30N 42°15' W 070°57'612.0
2018-Jul-17 09:00N 42°20' W 071°01'611.4
2018-Jul-17 08:30N 42°16' W 070°56'2 1.3
2018-Jul-17 07:09N 42°15' W 070°58'1 8.3
2018-Jul-17 07:00N 42°15' W 070°57'510.8
2018-Jul-17 06:30N 42°21' W 070°58'0 0.1
2018-Jul-17 06:00N 42°21' W 070°58'0 0.5
2018-Jul-17 05:30N 42°20' W 070°58'610.8
2018-Jul-17 05:00N 42°15' W 070°58'4 7.5
2018-Jul-17 04:30N 42°18' W 070°55'1 1.2
2018-Jul-17 04:00N 42°19' W 070°56'4 8.7
2018-Jul-17 03:31N 42°15' W 070°58'0 0.0
2018-Jul-17 02:59N 42°15' W 070°58'0 0.0
2018-Jul-17 02:25N 42°15' W 070°58'0 0.0
2018-Jul-17 01:27N 42°15' W 070°58'510.9
2018-Jul-17 01:00N 42°19' W 070°57'4 7.4
2018-Jul-17 00:30N 42°16' W 070°56'2 1.8
2018-Jul-16 23:28N 42°15' W 070°58'4 9.4
2018-Jul-16 23:00N 42°18' W 070°56'3 5.1
2018-Jul-16 22:30N 42°21' W 070°58'611.2
2018-Jul-16 21:59N 42°15' W 070°58'2 4.9
2018-Jul-16 21:30N 42°16' W 070°56'510.7
2018-Jul-16 21:00N 42°20' W 071°00'611.8
2018-Jul-16 20:30N 42°15' W 070°58'0 0.5
2018-Jul-16 20:00N 42°15' W 070°58'0 0.0
2018-Jul-16 19:30N 42°15' W 070°58'0 0.0
2018-Jul-16 18:54N 42°15' W 070°58'1 1.6
2018-Jul-16 18:30N 42°15' W 070°58'511.0
2018-Jul-16 18:00N 42°20' W 071°00'2 3.5
2018-Jul-16 17:30N 42°21' W 070°58'611.2
2018-Jul-16 17:00N 42°15' W 070°57'2 4.5
2018-Jul-16 16:30N 42°17' W 070°56'3 5.4
2018-Jul-16 16:01N 42°20' W 070°57'5 9.8
2018-Jul-16 15:30N 42°15' W 070°58'0 0.0
2018-Jul-16 15:00N 42°15' W 070°58'0 0.0
2018-Jul-16 14:30N 42°15' W 070°58'0 0.0
2018-Jul-16 14:00N 42°15' W 070°58'1 2.6
2018-Jul-16 13:30N 42°15' W 070°57'510.7
2018-Jul-16 13:00N 42°21' W 070°58'2 4.1
2018-Jul-16 12:30N 42°20' W 071°01'4 7.8
2018-Jul-16 12:01N 42°17' W 070°57'3 5.2
2018-Jul-16 11:28N 42°15' W 070°58'510.8
2018-Jul-16 11:00N 42°20' W 070°57'1 2.5
2018-Jul-16 10:31N 42°19' W 070°56'4 8.5
2018-Jul-16 10:01N 42°15' W 070°58'4 7.2
2018-Jul-16 09:30N 42°18' W 070°58'1 1.6
2018-Jul-16 09:00N 42°19' W 070°59'4 8.2
2018-Jul-16 08:30N 42°15' W 070°57'1 1.6
2018-Jul-16 08:00N 42°15' W 070°58'1 2.3
2018-Jul-16 07:30N 42°15' W 070°57'3 6.7
2018-Jul-16 07:00N 42°18' W 070°58'3 5.3
2018-Jul-16 06:30N 42°20' W 071°01'2 4.1
2018-Jul-16 06:00N 42°21' W 070°58'4 8.9
2018-Jul-16 05:30N 42°16' W 070°56'2 4.6
2018-Jul-16 04:58N 42°15' W 070°58'3 6.8
2018-Jul-16 04:30N 42°17' W 070°56'2 4.9
2018-Jul-16 04:00N 42°20' W 070°57'510.1
2018-Jul-16 03:30N 42°15' W 070°58'0 0.0
2018-Jul-16 02:21N 42°15' W 070°58'0 0.0
2018-Jul-16 01:52N 42°15' W 070°58'0 0.1
2018-Jul-16 01:30N 42°15' W 070°58'0 0.0
2018-Jul-16 00:57N 42°15' W 070°58'0 0.0
2018-Jul-15 23:22N 42°15' W 070°58'2 5.3
2018-Jul-15 23:00N 42°16' W 070°56'5 9.8
2018-Jul-15 22:30N 42°21' W 070°58'611.4
2018-Jul-15 21:59N 42°15' W 070°58'3 5.3
2018-Jul-15 21:30N 42°16' W 070°56'510.0
2018-Jul-15 21:00N 42°20' W 071°00'611.6
2018-Jul-15 20:30N 42°15' W 070°58'0 0.0
2018-Jul-15 20:00N 42°15' W 070°58'0 0.0
2018-Jul-15 19:30N 42°15' W 070°58'0 0.0
2018-Jul-15 19:00N 42°15' W 070°58'0 0.0
2018-Jul-15 18:30N 42°15' W 070°58'0 0.0
2018-Jul-15 18:00N 42°15' W 070°58'0 0.0
2018-Jul-15 17:30N 42°15' W 070°58'0 0.0
2018-Jul-15 17:00N 42°15' W 070°58'2 3.3
2018-Jul-15 16:30N 42°16' W 070°56'510.3
2018-Jul-15 16:00N 42°21' W 070°58'611.1
2018-Jul-15 15:30N 42°15' W 070°57'1 2.0
2018-Jul-15 14:59N 42°15' W 070°58'1 1.9
2018-Jul-15 14:30N 42°15' W 070°57'4 9.0
2018-Jul-15 14:00N 42°19' W 070°57'1 3.0
2018-Jul-15 13:31N 42°21' W 070°58'0 0.1
2018-Jul-15 13:00N 42°21' W 070°58'4 8.3
2018-Jul-15 12:30N 42°17' W 070°56'3 5.4
2018-Jul-15 12:00N 42°15' W 070°58'0 0.0
2018-Jul-15 11:30N 42°15' W 070°58'2 3.8
2018-Jul-15 11:00N 42°16' W 070°56'5 9.2
2018-Jul-15 10:30N 42°20' W 070°58'6 7.9
2018-Jul-15 09:47N 42°15' W 070°58'2 8.4
2018-Jul-15 09:30N 42°16' W 070°56'510.8
2018-Jul-15 09:00N 42°20' W 071°01'611.5
2018-Jul-15 08:31N 42°16' W 070°56'2 1.7
2018-Jul-15 07:33N 42°15' W 070°58'0 0.0
2018-Jul-15 07:23N 42°15' W 070°58'0 0.0
2018-Jul-15 07:00N 42°15' W 070°58'0 0.0
2018-Jul-15 06:29N 42°15' W 070°58'0 0.0
2018-Jul-15 06:00N 42°15' W 070°58'0 0.0
2018-Jul-15 05:30N 42°15' W 070°58'0 0.0
2018-Jul-15 05:00N 42°15' W 070°58'5 9.2
2018-Jul-15 04:30N 42°19' W 070°56'1 1.6
2018-Jul-15 04:00N 42°20' W 070°57'510.1
2018-Jul-15 03:30N 42°15' W 070°58'0 0.0
2018-Jul-15 02:26N 42°15' W 070°58'0 0.0
2018-Jul-15 01:55N 42°15' W 070°58'0 0.0
2018-Jul-15 01:22N 42°15' W 070°58'0 0.0
2018-Jul-15 01:00N 42°15' W 070°58'0 0.0
2018-Jul-15 00:30N 42°15' W 070°58'0 0.0
2018-Jul-14 23:58N 42°15' W 070°58'0 0.0
2018-Jul-14 23:29N 42°15' W 070°58'0 0.3
2018-Jul-14 23:00N 42°15' W 070°58'510.8
2018-Jul-14 22:30N 42°20' W 070°57'5 9.5
2018-Jul-14 22:00N 42°15' W 070°57'1 2.4
2018-Jul-14 21:30N 42°16' W 070°56'510.0
2018-Jul-14 21:00N 42°20' W 071°00'611.4
2018-Jul-14 20:30N 42°15' W 070°58'0 0.1
2018-Jul-14 20:01N 42°15' W 070°58'0 0.1
2018-Jul-14 19:30N 42°15' W 070°58'0 0.0
2018-Jul-14 19:01N 42°15' W 070°58'0 0.0
2018-Jul-14 18:30N 42°15' W 070°58'0 0.0
2018-Jul-14 18:00N 42°15' W 070°58'0 0.0
2018-Jul-14 17:30N 42°15' W 070°58'0 0.0
2018-Jul-14 17:00N 42°15' W 070°58'3 7.0
2018-Jul-14 16:31N 42°17' W 070°56'3 5.5
2018-Jul-14 16:00N 42°19' W 070°59'4 8.3
2018-Jul-14 15:30N 42°15' W 070°58'0 0.1
2018-Jul-14 15:00N 42°15' W 070°58'0 0.0
2018-Jul-14 14:30N 42°15' W 070°58'0 0.0
2018-Jul-14 13:31N 42°15' W 070°58'0 0.0
2018-Jul-14 13:00N 42°15' W 070°58'0 0.0
2018-Jul-14 12:31N 42°15' W 070°58'0 0.0
2018-Jul-14 12:00N 42°15' W 070°58'0 0.0
2018-Jul-14 11:31N 42°15' W 070°58'0 0.0
2018-Jul-14 11:00N 42°15' W 070°58'5 9.4
2018-Jul-14 10:30N 42°19' W 070°56'0 0.9
2018-Jul-14 10:00N 42°20' W 070°57'5 9.7
2018-Jul-14 09:30N 42°15' W 070°58'0 0.0
2018-Jul-14 09:00N 42°15' W 070°58'0 0.0
2018-Jul-14 08:30N 42°15' W 070°58'0 0.0
2018-Jul-14 08:01N 42°15' W 070°58'0 0.0
2018-Jul-14 07:31N 42°15' W 070°58'0 0.0
2018-Jul-14 07:00N 42°15' W 070°58'0 0.0
2018-Jul-14 06:30N 42°15' W 070°58'0 0.0
2018-Jul-14 06:00N 42°15' W 070°58'0 0.0
2018-Jul-14 05:09N 42°15' W 070°58'0 0.0
2018-Jul-14 04:57N 42°15' W 070°58'4 9.0
2018-Jul-14 04:30N 42°18' W 070°55'2 3.1
2018-Jul-14 04:01N 42°19' W 070°57'5 9.6
2018-Jul-14 03:30N 42°15' W 070°58'0 0.0
2018-Jul-14 02:58N 42°15' W 070°58'0 0.0
2018-Jul-14 02:28N 42°15' W 070°58'0 0.0
2018-Jul-14 02:00N 42°15' W 070°58'0 0.0
2018-Jul-14 01:30N 42°15' W 070°58'0 0.0
2018-Jul-14 01:00N 42°15' W 070°58'0 0.0
2018-Jul-14 00:30N 42°15' W 070°58'0 0.0
2018-Jul-14 00:00N 42°15' W 070°58'0 0.0
2018-Jul-13 23:30N 42°15' W 070°58'0 0.0
2018-Jul-13 23:00N 42°15' W 070°58'3 6.5
2018-Jul-13 22:30N 42°18' W 070°58'2 4.8
2018-Jul-13 22:00N 42°20' W 070°59'611.3
2018-Jul-13 21:30N 42°15' W 070°58'0 0.3
2018-Jul-13 21:00N 42°15' W 070°58'0 0.0
2018-Jul-13 20:30N 42°15' W 070°58'0 0.0
2018-Jul-13 20:00N 42°15' W 070°58'4 7.8
2018-Jul-13 19:30N 42°18' W 070°59'1 1.6
2018-Jul-13 19:00N 42°18' W 070°58'3 6.1
2018-Jul-13 18:29N 42°15' W 070°58'0 0.0
2018-Jul-13 18:00N 42°15' W 070°58'0 0.2
2018-Jul-13 17:29N 42°15' W 070°58'0 0.2
2018-Jul-13 16:59N 42°15' W 070°58'3 6.0
2018-Jul-13 16:30N 42°18' W 070°58'2 3.6
2018-Jul-13 16:00N 42°19' W 070°59'4 8.8
2018-Jul-13 15:30N 42°15' W 070°58'0 0.0
2018-Jul-13 15:00N 42°15' W 070°58'1 2.1
2018-Jul-13 14:30N 42°15' W 070°57'4 3.5
2018-Jul-13 13:30N 42°18' W 070°59'4 7.8
2018-Jul-13 13:00N 42°15' W 070°58'2 5.0
2018-Jul-13 12:31N 42°17' W 070°57'4 7.4
2018-Jul-13 12:00N 42°21' W 070°58'4 7.5
2018-Jul-13 11:30N 42°17' W 070°57'3 5.0
2018-Jul-13 11:00N 42°15' W 070°58'4 7.9
2018-Jul-13 10:30N 42°18' W 070°55'3 6.2
2018-Jul-13 10:00N 42°21' W 070°58'611.8
2018-Jul-13 09:30N 42°15' W 070°58'0 0.2
2018-Jul-13 08:57N 42°15' W 070°58'0 0.0
2018-Jul-13 08:30N 42°15' W 070°58'0 0.0
2018-Jul-13 08:00N 42°15' W 070°58'0 0.0
2018-Jul-13 07:30N 42°15' W 070°58'0 0.0
2018-Jul-13 07:01N 42°15' W 070°58'0 0.0
2018-Jul-13 06:28N 42°15' W 070°58'0 0.0
2018-Jul-13 06:00N 42°15' W 070°58'0 0.0
2018-Jul-13 05:29N 42°15' W 070°58'0 0.0
2018-Jul-13 05:00N 42°15' W 070°58'3 5.3
2018-Jul-13 04:30N 42°17' W 070°56'4 7.3
2018-Jul-13 04:01N 42°20' W 070°57'610.4
2018-Jul-13 03:29N 42°15' W 070°58'0 0.0
2018-Jul-13 02:58N 42°15' W 070°58'0 0.0
2018-Jul-13 02:28N 42°15' W 070°58'0 0.0
2018-Jul-13 01:30N 42°15' W 070°58'0 0.0
2018-Jul-13 01:00N 42°15' W 070°58'0 0.0
2018-Jul-13 00:30N 42°15' W 070°58'0 0.0
2018-Jul-13 00:00N 42°15' W 070°58'0 0.0
2018-Jul-12 23:30N 42°15' W 070°58'0 0.0
2018-Jul-12 23:00N 42°15' W 070°58'2 3.9
2018-Jul-12 22:30N 42°16' W 070°56'5 9.3
2018-Jul-12 22:00N 42°20' W 070°58'611.1
2018-Jul-12 21:29N 42°15' W 070°58'0 0.0
2018-Jul-12 20:59N 42°15' W 070°58'0 0.2
2018-Jul-12 20:30N 42°15' W 070°58'612.2
2018-Jul-12 20:00N 42°21' W 070°58'3 5.4
2018-Jul-12 19:30N 42°18' W 070°56'4 8.2
2018-Jul-12 19:00N 42°15' W 070°58'0 0.0
2018-Jul-12 18:27N 42°15' W 070°58'0 0.0
2018-Jul-12 18:00N 42°15' W 070°58'0 0.0
2018-Jul-12 17:22N 42°15' W 070°58'0 0.0
2018-Jul-12 16:57N 42°15' W 070°58'6 8.9
2018-Jul-12 16:17N 42°21' W 070°58'414.3
2018-Jul-12 16:00N 42°17' W 070°56'0 0.7
2018-Jul-12 15:27N 42°17' W 070°56'4 7.6
2018-Jul-12 14:58N 42°21' W 070°58'0 0.1
2018-Jul-12 14:29N 42°21' W 070°58'4 7.3
2018-Jul-12 13:59N 42°17' W 070°56'3 2.9
2018-Jul-12 12:56N 42°15' W 070°58'612.4
2018-Jul-12 12:27N 42°21' W 070°58'0 0.3
2018-Jul-12 11:58N 42°21' W 070°58'3 6.0
2018-Jul-12 11:29N 42°18' W 070°55'4 6.6
2018-Jul-12 10:52N 42°15' W 070°58'512.2
2018-Jul-12 10:30N 42°19' W 070°56'1 1.5
2018-Jul-12 10:00N 42°20' W 070°57'5 9.6
2018-Jul-12 09:29N 42°15' W 070°58'0 0.0
2018-Jul-12 09:01N 42°15' W 070°58'0 0.0
2018-Jul-12 08:30N 42°15' W 070°58'0 0.0
2018-Jul-12 08:00N 42°15' W 070°58'0 0.0
2018-Jul-12 07:30N 42°15' W 070°58'  
Track history (hours):
 
Tides and Currents Weather Stations Pressure Air Temp Water Temp Dewpoint Dewpoint Depression Visibility Wind Speed Wind Dir Waves Ship Positions

Judy C

Owner: Boston Line & Service Co Inc., Boston, MA. More information available from US FCC via Universal Licensing System and Coast Guard Vessel Documentation Center.

Last reported at 2018-Jul-22 07:21 UTC. Time now 2018-Jul-22 12:54 UTC.
Position N 42°15' W 070°57'.

Length 13 m.

Type: Ship. MMSI: 367760510.

Date/timePositionNaut miles runAvg speedWind from/ knotsBaromVisibWave heightAir tempDewpointWater temp
2018-Jul-22 07:21N 42°15' W 070°57'614.6
2018-Jul-22 06:57N 42°20' W 071°00'2 5.5
2018-Jul-22 06:31N 42°20' W 070°57'510.5
2018-Jul-22 06:00N 42°15' W 070°58'0 0.0
2018-Jul-22 05:30N 42°15' W 070°58'0 0.1
2018-Jul-22 04:38N 42°15' W 070°58'1 9.8
2018-Jul-22 04:30N 42°15' W 070°57'510.7
2018-Jul-22 04:00N 42°21' W 070°58'6 3.7
2018-Jul-22 02:24N 42°15' W 070°58'2 0.6
2018-Jul-21 23:06N 42°16' W 070°56'511.9
2018-Jul-21 22:42N 42°21' W 070°58'2 0.5
2018-Jul-21 18:30N 42°20' W 071°00'5 2.6
2018-Jul-21 16:26N 42°16' W 070°56'4 9.9
2018-Jul-21 15:59N 42°20' W 070°57'6 5.0
2018-Jul-21 14:52N 42°15' W 070°58'1 2.5
2018-Jul-21 14:30N 42°15' W 070°57'6 5.5
2018-Jul-21 13:30N 42°21' W 070°58'0 0.1
2018-Jul-21 13:00N 42°21' W 070°58'0 0.2
2018-Jul-21 12:30N 42°21' W 070°58'3 5.1
2018-Jul-21 12:00N 42°19' W 070°56'4 8.3
2018-Jul-21 11:30N 42°15' W 070°58'1 2.9
2018-Jul-21 11:00N 42°16' W 070°56'5 9.2
2018-Jul-21 10:30N 42°20' W 070°57'610.8
2018-Jul-21 10:00N 42°15' W 070°58'3 5.2
2018-Jul-21 09:30N 42°17' W 070°57'2 4.0
2018-Jul-21 09:00N 42°19' W 070°59'4 2.1
2018-Jul-21 07:03N 42°15' W 070°58'0 1.2
2018-Jul-21 06:59N 42°15' W 070°58'510.7
2018-Jul-21 06:30N 42°20' W 070°60'2 3.3
2018-Jul-21 06:00N 42°21' W 070°58'510.2
2018-Jul-21 05:29N 42°16' W 070°56'2 2.3
2018-Jul-21 04:46N 42°15' W 070°58'2 7.3
2018-Jul-21 04:26N 42°16' W 070°56'410.2
2018-Jul-21 04:00N 42°21' W 070°58'6 2.6
2018-Jul-21 01:46N 42°15' W 070°58'3 9.0
2018-Jul-21 01:29N 42°17' W 070°57'4 9.3
2018-Jul-21 01:01N 42°20' W 071°00'6 3.4
2018-Jul-20 23:17N 42°15' W 070°58'312.0
2018-Jul-20 23:00N 42°17' W 070°56'3 6.4
2018-Jul-20 22:30N 42°20' W 070°58'6 6.6
2018-Jul-20 21:40N 42°15' W 070°58'1 8.2
2018-Jul-20 21:30N 42°15' W 070°57'611.7
2018-Jul-20 21:00N 42°20' W 071°01'6 9.0
2018-Jul-20 20:20N 42°15' W 070°58'1 3.8
2018-Jul-20 20:00N 42°15' W 070°57'611.7
2018-Jul-20 19:30N 42°21' W 070°60'4 7.1
2018-Jul-20 19:00N 42°17' W 070°58'2 4.9
2018-Jul-20 18:30N 42°15' W 070°57'611.9
2018-Jul-20 18:01N 42°20' W 071°00'5 9.8
2018-Jul-20 17:30N 42°17' W 070°56'2 4.0
2018-Jul-20 17:00N 42°15' W 070°57'510.0
2018-Jul-20 16:30N 42°20' W 070°57'511.0
2018-Jul-20 16:00N 42°15' W 070°58'5 8.9
2018-Jul-20 15:30N 42°19' W 070°56'3 6.7
2018-Jul-20 15:00N 42°16' W 070°56'1 2.4
2018-Jul-20 14:30N 42°17' W 070°56'4 8.3
2018-Jul-20 14:00N 42°21' W 070°58'3 5.2
2018-Jul-20 13:30N 42°18' W 070°58'3 4.3
2018-Jul-20 12:44N 42°15' W 070°58'0 0.0
2018-Jul-20 11:36N 42°15' W 070°58'0 0.4
2018-Jul-20 11:12N 42°15' W 070°58'312.3
2018-Jul-20 10:55N 42°18' W 070°56'4 8.1
2018-Jul-20 10:29N 42°21' W 070°58'612.0
2018-Jul-20 09:59N 42°15' W 070°58'3 5.1
2018-Jul-20 09:29N 42°17' W 070°56'1 2.3
2018-Jul-20 08:52N 42°18' W 070°58'3 1.7
2018-Jul-20 07:02N 42°15' W 070°58'0 3.5
2018-Jul-20 07:00N 42°15' W 070°58'611.6
2018-Jul-20 06:29N 42°20' W 071°00'1 2.5
2018-Jul-20 06:00N 42°20' W 070°59'4 8.5
2018-Jul-20 05:30N 42°17' W 070°56'3 4.1
2018-Jul-20 04:52N 42°15' W 070°58'2 5.6
2018-Jul-20 04:30N 42°16' W 070°56'4 8.1
2018-Jul-20 04:00N 42°20' W 070°57'510.8
2018-Jul-20 03:31N 42°15' W 070°58'0 0.0
2018-Jul-20 03:00N 42°15' W 070°58'3 2.4
2018-Jul-20 01:43N 42°17' W 070°56'315.6
2018-Jul-20 01:30N 42°20' W 070°57'5 9.7
2018-Jul-20 01:00N 42°15' W 070°57'1 0.9
2018-Jul-19 23:49N 42°15' W 070°58'0 0.0
2018-Jul-19 23:28N 42°15' W 070°58'3 7.2
2018-Jul-19 23:00N 42°17' W 070°56'3 5.7
2018-Jul-19 22:30N 42°20' W 070°57'510.7
2018-Jul-19 22:00N 42°15' W 070°58'3 5.3
2018-Jul-19 21:30N 42°17' W 070°57'4 7.4
2018-Jul-19 21:00N 42°20' W 071°00'6 3.4
2018-Jul-19 19:18N 42°15' W 070°58'2 7.5
2018-Jul-19 19:01N 42°16' W 070°56'3 5.4
2018-Jul-19 18:30N 42°19' W 070°56'4 2.4
2018-Jul-19 16:40N 42°15' W 070°58'1 8.4
2018-Jul-19 16:30N 42°15' W 070°57'5 9.7
2018-Jul-19 16:00N 42°20' W 070°58'5 5.4
2018-Jul-19 15:06N 42°16' W 070°56'217.5
2018-Jul-19 15:00N 42°17' W 070°56'4 3.1
2018-Jul-19 13:51N 42°21' W 070°58'0 0.4
2018-Jul-19 13:29N 42°20' W 070°58'0 0.5
2018-Jul-19 12:39N 42°21' W 070°58'1 7.2
2018-Jul-19 12:30N 42°22' W 070°59'2 4.0
2018-Jul-19 12:00N 42°20' W 070°57'5 7.9
2018-Jul-19 11:19N 42°15' W 070°58'310.7
2018-Jul-19 11:00N 42°17' W 070°56'3 6.7
2018-Jul-19 10:30N 42°20' W 070°58'6 7.6
2018-Jul-19 09:45N 42°15' W 070°58'2 9.0
2018-Jul-19 09:29N 42°17' W 070°57'3 7.1
2018-Jul-19 09:00N 42°20' W 070°60'5 2.9
2018-Jul-19 07:10N 42°15' W 070°58'211.6
2018-Jul-19 07:00N 42°16' W 070°56'611.2
2018-Jul-19 06:30N 42°20' W 071°01'3 6.1
2018-Jul-19 06:00N 42°20' W 070°57'5 3.5
2018-Jul-19 04:35N 42°15' W 070°58'111.3
2018-Jul-19 04:28N 42°15' W 070°57'511.3
2018-Jul-19 04:00N 42°21' W 070°58'611.5
2018-Jul-19 03:30N 42°15' W 070°58'0 0.1
2018-Jul-19 01:55N 42°15' W 070°58'411.1
2018-Jul-19 01:30N 42°19' W 070°56'2 4.1
2018-Jul-19 00:58N 42°21' W 070°58'0 0.0
2018-Jul-19 00:29N 42°21' W 070°58'0 0.1
2018-Jul-19 00:00N 42°21' W 070°58'6 9.9
2018-Jul-18 23:24N 42°15' W 070°58'511.6
2018-Jul-18 23:00N 42°19' W 070°56'0 0.7
2018-Jul-18 22:27N 42°20' W 070°57'1 0.2
2018-Jul-18 16:14N 42°20' W 070°58'0 0.1
2018-Jul-18 13:58N 42°21' W 070°58'1 1.7
2018-Jul-18 13:22N 42°20' W 070°59'2 4.2
2018-Jul-18 13:00N 42°21' W 071°01'6 3.5
2018-Jul-18 11:12N 42°15' W 070°58'6 8.5
2018-Jul-18 10:30N 42°21' W 070°58'2 0.5
2018-Jul-18 06:27N 42°20' W 071°00'2 0.8
2018-Jul-18 04:00N 42°21' W 070°58'5 0.7
2018-Jul-17 21:28N 42°16' W 070°56'612.2
2018-Jul-17 21:01N 42°20' W 071°01'611.1
2018-Jul-17 20:27N 42°15' W 070°58'0 0.4
2018-Jul-17 20:00N 42°15' W 070°58'0 0.7
2018-Jul-17 19:30N 42°15' W 070°58'611.6
2018-Jul-17 19:00N 42°20' W 071°00'0 0.9
2018-Jul-17 18:30N 42°20' W 071°01'2 4.7
2018-Jul-17 18:00N 42°21' W 070°58'4 8.9
2018-Jul-17 17:30N 42°16' W 070°56'2 4.7
2018-Jul-17 17:00N 42°15' W 070°58'3 6.9
2018-Jul-17 16:30N 42°18' W 070°56'2 3.5
2018-Jul-17 16:00N 42°19' W 070°56'5 9.4
2018-Jul-17 15:30N 42°15' W 070°58'1 1.3
2018-Jul-17 15:00N 42°15' W 070°57'611.6
2018-Jul-17 14:30N 42°21' W 070°58'0 0.3
2018-Jul-17 14:01N 42°21' W 070°58'2 4.4
2018-Jul-17 13:30N 42°20' W 071°01'0 0.0
2018-Jul-17 13:00N 42°20' W 071°01'0 0.4
2018-Jul-17 12:30N 42°20' W 071°00'1 3.0
2018-Jul-17 12:00N 42°20' W 070°58'610.8
2018-Jul-17 11:29N 42°15' W 070°58'4 8.6
2018-Jul-17 11:00N 42°18' W 070°55'2 4.3
2018-Jul-17 10:31N 42°20' W 070°57'510.7
2018-Jul-17 10:00N 42°15' W 070°58'1 1.7
2018-Jul-17 09:30N 42°15' W 070°57'612.0
2018-Jul-17 09:00N 42°20' W 071°01'611.4
2018-Jul-17 08:30N 42°16' W 070°56'2 1.3
2018-Jul-17 07:09N 42°15' W 070°58'1 8.3
2018-Jul-17 07:00N 42°15' W 070°57'510.8
2018-Jul-17 06:30N 42°21' W 070°58'0 0.1
2018-Jul-17 06:00N 42°21' W 070°58'0 0.5
2018-Jul-17 05:30N 42°20' W 070°58'610.8
2018-Jul-17 05:00N 42°15' W 070°58'4 7.5
2018-Jul-17 04:30N 42°18' W 070°55'1 1.2
2018-Jul-17 04:00N 42°19' W 070°56'4 8.7
2018-Jul-17 03:31N 42°15' W 070°58'0 0.0
2018-Jul-17 02:59N 42°15' W 070°58'0 0.0
2018-Jul-17 02:25N 42°15' W 070°58'0 0.0
2018-Jul-17 01:27N 42°15' W 070°58'510.9
2018-Jul-17 01:00N 42°19' W 070°57'4 7.4
2018-Jul-17 00:30N 42°16' W 070°56'2 1.8
2018-Jul-16 23:28N 42°15' W 070°58'4 9.4
2018-Jul-16 23:00N 42°18' W 070°56'3 5.1
2018-Jul-16 22:30N 42°21' W 070°58'611.2
2018-Jul-16 21:59N 42°15' W 070°58'2 4.9
2018-Jul-16 21:30N 42°16' W 070°56'510.7
2018-Jul-16 21:00N 42°20' W 071°00'611.8
2018-Jul-16 20:30N 42°15' W 070°58'0 0.5
2018-Jul-16 20:00N 42°15' W 070°58'0 0.0
2018-Jul-16 19:30N 42°15' W 070°58'0 0.0
2018-Jul-16 18:54N 42°15' W 070°58'1 1.6
2018-Jul-16 18:30N 42°15' W 070°58'511.0
2018-Jul-16 18:00N 42°20' W 071°00'2 3.5
2018-Jul-16 17:30N 42°21' W 070°58'611.2
2018-Jul-16 17:00N 42°15' W 070°57'2 4.5
2018-Jul-16 16:30N 42°17' W 070°56'3 5.4
2018-Jul-16 16:01N 42°20' W 070°57'5 9.8
2018-Jul-16 15:30N 42°15' W 070°58'0 0.0
2018-Jul-16 15:00N 42°15' W 070°58'0 0.0
2018-Jul-16 14:30N 42°15' W 070°58'0 0.0
2018-Jul-16 14:00N 42°15' W 070°58'1 2.6
2018-Jul-16 13:30N 42°15' W 070°57'510.7
2018-Jul-16 13:00N 42°21' W 070°58'2 4.1
2018-Jul-16 12:30N 42°20' W 071°01'4 7.8
2018-Jul-16 12:01N 42°17' W 070°57'3 5.2
2018-Jul-16 11:28N 42°15' W 070°58'510.8
2018-Jul-16 11:00N 42°20' W 070°57'1 2.5
2018-Jul-16 10:31N 42°19' W 070°56'4 8.5
2018-Jul-16 10:01N 42°15' W 070°58'4 7.2
2018-Jul-16 09:30N 42°18' W 070°58'1 1.6
2018-Jul-16 09:00N 42°19' W 070°59'4 8.2
2018-Jul-16 08:30N 42°15' W 070°57'1 1.6
2018-Jul-16 08:00N 42°15' W 070°58'1 2.3
2018-Jul-16 07:30N 42°15' W 070°57'3 6.7
2018-Jul-16 07:00N 42°18' W 070°58'3 5.3
2018-Jul-16 06:30N 42°20' W 071°01'2 4.1
2018-Jul-16 06:00N 42°21' W 070°58'4 8.9
2018-Jul-16 05:30N 42°16' W 070°56'2 4.6
2018-Jul-16 04:58N 42°15' W 070°58'3 6.8
2018-Jul-16 04:30N 42°17' W 070°56'2 4.9
2018-Jul-16 04:00N 42°20' W 070°57'510.1
2018-Jul-16 03:30N 42°15' W 070°58'0 0.0
2018-Jul-16 02:21N 42°15' W 070°58'0 0.0
2018-Jul-16 01:52N 42°15' W 070°58'0 0.1
2018-Jul-16 01:30N 42°15' W 070°58'0 0.0
2018-Jul-16 00:57N 42°15' W 070°58'0 0.0
2018-Jul-15 23:22N 42°15' W 070°58'2 5.3
2018-Jul-15 23:00N 42°16' W 070°56'5 9.8
2018-Jul-15 22:30N 42°21' W 070°58'611.4
2018-Jul-15 21:59N 42°15' W 070°58'3 5.3
2018-Jul-15 21:30N 42°16' W 070°56'510.0
2018-Jul-15 21:00N 42°20' W 071°00'611.6
2018-Jul-15 20:30N 42°15' W 070°58'0 0.0
2018-Jul-15 20:00N 42°15' W 070°58'0 0.0
2018-Jul-15 19:30N 42°15' W 070°58'0 0.0
2018-Jul-15 19:00N 42°15' W 070°58'0 0.0
2018-Jul-15 18:30N 42°15' W 070°58'0 0.0
2018-Jul-15 18:00N 42°15' W 070°58'0 0.0
2018-Jul-15 17:30N 42°15' W 070°58'0 0.0
2018-Jul-15 17:00N 42°15' W 070°58'2 3.3
2018-Jul-15 16:30N 42°16' W 070°56'510.3
2018-Jul-15 16:00N 42°21' W 070°58'611.1
2018-Jul-15 15:30N 42°15' W 070°57'1 2.0
2018-Jul-15 14:59N 42°15' W 070°58'1 1.9
2018-Jul-15 14:30N 42°15' W 070°57'4 9.0
2018-Jul-15 14:00N 42°19' W 070°57'1 3.0
2018-Jul-15 13:31N 42°21' W 070°58'0 0.1
2018-Jul-15 13:00N 42°21' W 070°58'4 8.3
2018-Jul-15 12:30N 42°17' W 070°56'3 5.4
2018-Jul-15 12:00N 42°15' W 070°58'0 0.0
2018-Jul-15 11:30N 42°15' W 070°58'2 3.8
2018-Jul-15 11:00N 42°16' W 070°56'5 9.2
2018-Jul-15 10:30N 42°20' W 070°58'6 7.9
2018-Jul-15 09:47N 42°15' W 070°58'2 8.4
2018-Jul-15 09:30N 42°16' W 070°56'510.8
2018-Jul-15 09:00N 42°20' W 071°01'611.5
2018-Jul-15 08:31N 42°16' W 070°56'2 1.7
2018-Jul-15 07:33N 42°15' W 070°58'0 0.0
2018-Jul-15 07:23N 42°15' W 070°58'0 0.0
2018-Jul-15 07:00N 42°15' W 070°58'0 0.0
2018-Jul-15 06:29N 42°15' W 070°58'0 0.0
2018-Jul-15 06:00N 42°15' W 070°58'0 0.0
2018-Jul-15 05:30N 42°15' W 070°58'0 0.0
2018-Jul-15 05:00N 42°15' W 070°58'5 9.2
2018-Jul-15 04:30N 42°19' W 070°56'1 1.6
2018-Jul-15 04:00N 42°20' W 070°57'510.1
2018-Jul-15 03:30N 42°15' W 070°58'0 0.0
2018-Jul-15 02:26N 42°15' W 070°58'0 0.0
2018-Jul-15 01:55N 42°15' W 070°58'0 0.0
2018-Jul-15 01:22N 42°15' W 070°58'0 0.0
2018-Jul-15 01:00N 42°15' W 070°58'0 0.0
2018-Jul-15 00:30N 42°15' W 070°58'0 0.0
2018-Jul-14 23:58N 42°15' W 070°58'0 0.0
2018-Jul-14 23:29N 42°15' W 070°58'0 0.3
2018-Jul-14 23:00N 42°15' W 070°58'510.8
2018-Jul-14 22:30N 42°20' W 070°57'5 9.5
2018-Jul-14 22:00N 42°15' W 070°57'1 2.4
2018-Jul-14 21:30N 42°16' W 070°56'510.0
2018-Jul-14 21:00N 42°20' W 071°00'611.4
2018-Jul-14 20:30N 42°15' W 070°58'0 0.1
2018-Jul-14 20:01N 42°15' W 070°58'0 0.1
2018-Jul-14 19:30N 42°15' W 070°58'0 0.0
2018-Jul-14 19:01N 42°15' W 070°58'0 0.0
2018-Jul-14 18:30N 42°15' W 070°58'0 0.0
2018-Jul-14 18:00N 42°15' W 070°58'0 0.0
2018-Jul-14 17:30N 42°15' W 070°58'0 0.0
2018-Jul-14 17:00N 42°15' W 070°58'3 7.0
2018-Jul-14 16:31N 42°17' W 070°56'3 5.5
2018-Jul-14 16:00N 42°19' W 070°59'4 8.3
2018-Jul-14 15:30N 42°15' W 070°58'0 0.1
2018-Jul-14 15:00N 42°15' W 070°58'0 0.0
2018-Jul-14 14:30N 42°15' W 070°58'0 0.0
2018-Jul-14 13:31N 42°15' W 070°58'0 0.0
2018-Jul-14 13:00N 42°15' W 070°58'0 0.0
2018-Jul-14 12:31N 42°15' W 070°58'0 0.0
2018-Jul-14 12:00N 42°15' W 070°58'0 0.0
2018-Jul-14 11:31N 42°15' W 070°58'0 0.0
2018-Jul-14 11:00N 42°15' W 070°58'5 9.4
2018-Jul-14 10:30N 42°19' W 070°56'0 0.9
2018-Jul-14 10:00N 42°20' W 070°57'5 9.7
2018-Jul-14 09:30N 42°15' W 070°58'0 0.0
2018-Jul-14 09:00N 42°15' W 070°58'0 0.0
2018-Jul-14 08:30N 42°15' W 070°58'0 0.0
2018-Jul-14 08:01N 42°15' W 070°58'0 0.0
2018-Jul-14 07:31N 42°15' W 070°58'0 0.0
2018-Jul-14 07:00N 42°15' W 070°58'0 0.0
2018-Jul-14 06:30N 42°15' W 070°58'0 0.0
2018-Jul-14 06:00N 42°15' W 070°58'0 0.0
2018-Jul-14 05:09N 42°15' W 070°58'0 0.0
2018-Jul-14 04:57N 42°15' W 070°58'4 9.0
2018-Jul-14 04:30N 42°18' W 070°55'2 3.1
2018-Jul-14 04:01N 42°19' W 070°57'5 9.6
2018-Jul-14 03:30N 42°15' W 070°58'0 0.0
2018-Jul-14 02:58N 42°15' W 070°58'0 0.0
2018-Jul-14 02:28N 42°15' W 070°58'0 0.0
2018-Jul-14 02:00N 42°15' W 070°58'0 0.0
2018-Jul-14 01:30N 42°15' W 070°58'0 0.0
2018-Jul-14 01:00N 42°15' W 070°58'0 0.0
2018-Jul-14 00:30N 42°15' W 070°58'0 0.0
2018-Jul-14 00:00N 42°15' W 070°58'0 0.0
2018-Jul-13 23:30N 42°15' W 070°58'0 0.0
2018-Jul-13 23:00N 42°15' W 070°58'3 6.5
2018-Jul-13 22:30N 42°18' W 070°58'2 4.8
2018-Jul-13 22:00N 42°20' W 070°59'611.3
2018-Jul-13 21:30N 42°15' W 070°58'0 0.3
2018-Jul-13 21:00N 42°15' W 070°58'0 0.0
2018-Jul-13 20:30N 42°15' W 070°58'0 0.0
2018-Jul-13 20:00N 42°15' W 070°58'4 7.8
2018-Jul-13 19:30N 42°18' W 070°59'1 1.6
2018-Jul-13 19:00N 42°18' W 070°58'3 6.1
2018-Jul-13 18:29N 42°15' W 070°58'0 0.0
2018-Jul-13 18:00N 42°15' W 070°58'0 0.2
2018-Jul-13 17:29N 42°15' W 070°58'0 0.2
2018-Jul-13 16:59N 42°15' W 070°58'3 6.0
2018-Jul-13 16:30N 42°18' W 070°58'2 3.6
2018-Jul-13 16:00N 42°19' W 070°59'4 8.8
2018-Jul-13 15:30N 42°15' W 070°58'0 0.0
2018-Jul-13 15:00N 42°15' W 070°58'1 2.1
2018-Jul-13 14:30N 42°15' W 070°57'4 3.5
2018-Jul-13 13:30N 42°18' W 070°59'4 7.8
2018-Jul-13 13:00N 42°15' W 070°58'2 5.0
2018-Jul-13 12:31N 42°17' W 070°57'4 7.4
2018-Jul-13 12:00N 42°21' W 070°58'4 7.5
2018-Jul-13 11:30N 42°17' W 070°57'3 5.0
2018-Jul-13 11:00N 42°15' W 070°58'4 7.9
2018-Jul-13 10:30N 42°18' W 070°55'3 6.2
2018-Jul-13 10:00N 42°21' W 070°58'611.8
2018-Jul-13 09:30N 42°15' W 070°58'0 0.2
2018-Jul-13 08:57N 42°15' W 070°58'0 0.0
2018-Jul-13 08:30N 42°15' W 070°58'0 0.0
2018-Jul-13 08:00N 42°15' W 070°58'0 0.0
2018-Jul-13 07:30N 42°15' W 070°58'0 0.0
2018-Jul-13 07:01N 42°15' W 070°58'0 0.0
2018-Jul-13 06:28N 42°15' W 070°58'0 0.0
2018-Jul-13 06:00N 42°15' W 070°58'0 0.0
2018-Jul-13 05:29N 42°15' W 070°58'0 0.0
2018-Jul-13 05:00N 42°15' W 070°58'3 5.3
2018-Jul-13 04:30N 42°17' W 070°56'4 7.3
2018-Jul-13 04:01N 42°20' W 070°57'610.4
2018-Jul-13 03:29N 42°15' W 070°58'0 0.0
2018-Jul-13 02:58N 42°15' W 070°58'0 0.0
2018-Jul-13 02:28N 42°15' W 070°58'0 0.0
2018-Jul-13 01:30N 42°15' W 070°58'0 0.0
2018-Jul-13 01:00N 42°15' W 070°58'0 0.0
2018-Jul-13 00:30N 42°15' W 070°58'0 0.0
2018-Jul-13 00:00N 42°15' W 070°58'0 0.0
2018-Jul-12 23:30N 42°15' W 070°58'0 0.0
2018-Jul-12 23:00N 42°15' W 070°58'2 3.9
2018-Jul-12 22:30N 42°16' W 070°56'5 9.3
2018-Jul-12 22:00N 42°20' W 070°58'611.1
2018-Jul-12 21:29N 42°15' W 070°58'0 0.0
2018-Jul-12 20:59N 42°15' W 070°58'0 0.2
2018-Jul-12 20:30N 42°15' W 070°58'612.2
2018-Jul-12 20:00N 42°21' W 070°58'3 5.4
2018-Jul-12 19:30N 42°18' W 070°56'4 8.2
2018-Jul-12 19:00N 42°15' W 070°58'0 0.0
2018-Jul-12 18:27N 42°15' W 070°58'0 0.0
2018-Jul-12 18:00N 42°15' W 070°58'0 0.0
2018-Jul-12 17:22N 42°15' W 070°58'0 0.0
2018-Jul-12 16:57N 42°15' W 070°58'6 8.9
2018-Jul-12 16:17N 42°21' W 070°58'414.3
2018-Jul-12 16:00N 42°17' W 070°56'0 0.7
2018-Jul-12 15:27N 42°17' W 070°56'4 7.6
2018-Jul-12 14:58N 42°21' W 070°58'0 0.1
2018-Jul-12 14:29N 42°21' W 070°58'4 7.3
2018-Jul-12 13:59N 42°17' W 070°56'3 2.9
2018-Jul-12 12:56N 42°15' W 070°58'612.4
2018-Jul-12 12:27N 42°21' W 070°58'0 0.3
2018-Jul-12 11:58N 42°21' W 070°58'3 6.0
2018-Jul-12 11:29N 42°18' W 070°55'4 6.6
2018-Jul-12 10:52N 42°15' W 070°58'512.2
2018-Jul-12 10:30N 42°19' W 070°56'1 1.5
2018-Jul-12 10:00N 42°20' W 070°57'5 9.6
2018-Jul-12 09:29N 42°15' W 070°58'0 0.0
2018-Jul-12 09:01N 42°15' W 070°58'0 0.0
2018-Jul-12 08:30N 42°15' W 070°58'0 0.0
2018-Jul-12 08:00N 42°15' W 070°58'0 0.0
2018-Jul-12 07:30N 42°15' W 070°58'  

Dump ship's entire track history